createdAt,value
2023-04-01T00:05:18.540Z,0.80
2023-04-01T00:08:20.010Z,0.90
2023-04-01T00:11:21.938Z,1.07
2023-04-01T00:14:23.328Z,0.80
2023-04-01T00:17:24.827Z,0.80
2023-04-01T00:20:26.669Z,0.60
2023-04-01T00:23:28.125Z,0.70
2023-04-01T00:26:29.558Z,0.70
2023-04-01T00:29:31.581Z,0.53
2023-04-01T00:32:33.163Z,0.50
2023-04-01T00:35:35.621Z,0.60
2023-04-01T00:38:38.342Z,0.50
2023-04-01T00:41:39.947Z,0.50
2023-04-01T00:44:42.243Z,0.45
2023-04-01T00:47:43.872Z,0.77
2023-04-01T00:51:04.781Z,0.43
2023-04-01T00:54:07.737Z,0.40
2023-04-01T00:57:13.644Z,0.35
2023-04-01T01:00:16.778Z,0.30
2023-04-01T01:03:18.703Z,0.40
2023-04-01T01:06:32.174Z,0.40
2023-04-01T01:09:39.692Z,0.40
2023-04-01T01:13:10.210Z,0.40
2023-04-01T01:16:25.120Z,0.40
2023-04-01T01:19:51.606Z,0.35
2023-04-01T01:23:19.878Z,0.40
2023-04-01T01:26:52.966Z,0.40
2023-04-01T01:30:14.574Z,0.40
2023-04-01T01:33:33.259Z,0.57
2023-04-01T01:36:38.478Z,0.47
2023-04-01T01:39:47.058Z,0.40
2023-04-01T01:42:53.018Z,0.30
2023-04-01T01:46:01.044Z,0.57
2023-04-01T01:49:06.044Z,0.40
2023-04-01T01:52:07.756Z,0.50
2023-04-01T01:55:29.947Z,0.43
2023-04-01T01:58:41.408Z,0.40
2023-04-01T02:04:51.345Z,0.55
2023-04-01T02:08:17.264Z,0.40
2023-04-01T02:11:24.945Z,0.55
2023-04-01T02:14:42.953Z,0.43
2023-04-01T02:17:46.889Z,0.30
2023-04-01T02:20:50.146Z,0.30
2023-04-01T02:23:54.945Z,0.40
2023-04-01T02:26:56.394Z,0.20
2023-04-01T02:29:58.824Z,0.43
2023-04-01T02:33:01.275Z,0.35
2023-04-01T02:36:02.857Z,0.40
2023-04-01T02:39:05.544Z,0.50
2023-04-01T02:42:07.102Z,0.40
2023-04-01T02:45:09.516Z,0.60
2023-04-01T02:48:11.183Z,0.90
2023-04-01T02:51:12.626Z,0.70
2023-04-01T02:54:14.416Z,1.40
2023-04-01T02:57:18.337Z,1.10
2023-04-01T03:00:19.958Z,1.00
2023-04-01T03:03:21.624Z,1.00
2023-04-01T03:06:23.138Z,0.90
2023-04-01T03:09:24.634Z,0.80
2023-04-01T03:12:26.138Z,0.98
2023-04-01T03:15:27.738Z,1.20
2023-04-01T03:18:29.595Z,1.30
2023-04-01T03:21:32.415Z,1.25
2023-04-01T03:24:33.828Z,1.10
2023-04-01T03:27:36.609Z,1.10
2023-04-01T03:30:38.107Z,1.27
2023-04-01T03:33:39.606Z,2.15
2023-04-01T03:36:41.069Z,0.90
2023-04-01T03:39:44.497Z,1.10
2023-04-01T03:42:46.086Z,1.30
2023-04-01T03:45:49.768Z,0.90
2023-04-01T03:48:51.172Z,0.70
2023-04-01T03:51:52.794Z,1.10
2023-04-01T03:54:54.467Z,0.90
2023-04-01T03:57:56.237Z,1.05
2023-04-01T04:00:58.030Z,0.80
2023-04-01T04:04:00.211Z,0.50
2023-04-01T04:10:09.430Z,0.60
2023-04-01T04:13:11.094Z,0.32
2023-04-01T04:16:19.725Z,0.30
2023-04-01T04:19:27.739Z,0.30
2023-04-01T04:22:29.325Z,0.30
2023-04-01T04:25:31.168Z,0.47
2023-04-01T04:28:33.424Z,1.13
2023-04-01T04:31:35.157Z,0.80
2023-04-01T04:34:36.741Z,0.95
2023-04-01T04:37:38.269Z,0.90
2023-04-01T04:40:42.229Z,1.17
2023-04-01T04:43:51.052Z,0.70
2023-04-01T04:46:52.590Z,0.95
2023-04-01T04:49:54.086Z,1.50
2023-04-01T04:52:55.767Z,0.77
2023-04-01T04:55:57.681Z,0.60
2023-04-01T04:59:09.542Z,0.90
2023-04-01T05:02:23.687Z,0.80
2023-04-01T05:05:25.407Z,1.10
2023-04-01T05:08:26.999Z,0.63
2023-04-01T05:11:28.562Z,0.70
2023-04-01T05:14:30.865Z,0.63
2023-04-01T05:17:40.340Z,0.90
2023-04-01T05:20:47.699Z,0.90
2023-04-01T05:23:49.586Z,0.80
2023-04-01T05:26:51.334Z,0.80
2023-04-01T05:29:52.927Z,0.95
2023-04-01T05:33:15.709Z,0.82
2023-04-01T05:36:17.576Z,0.98
2023-04-01T05:39:19.206Z,1.13
2023-04-01T05:42:21.482Z,0.80
2023-04-01T05:45:24.719Z,1.33
2023-04-01T05:48:44.559Z,0.80
2023-04-01T05:51:46.251Z,0.93
2023-04-01T05:54:47.793Z,0.93
2023-04-01T05:57:50.466Z,1.20
2023-04-01T06:01:05.851Z,1.00
2023-04-01T06:04:16.380Z,1.48
2023-04-01T06:07:18.891Z,1.23
2023-04-01T06:10:22.166Z,1.10
2023-04-01T06:13:55.626Z,0.85
2023-04-01T06:17:24.050Z,0.90
2023-04-01T06:20:48.706Z,0.88
2023-04-01T06:24:13.917Z,1.23
2023-04-01T06:27:53.948Z,1.23
2023-04-01T06:31:11.929Z,0.93
2023-04-01T06:34:53.469Z,0.88
2023-04-01T06:38:36.429Z,1.00
2023-04-01T06:45:07.715Z,1.10
2023-04-01T06:48:44.270Z,0.98
2023-04-01T06:52:23.739Z,1.40
2023-04-01T06:56:11.606Z,1.90
2023-04-01T06:59:35.936Z,1.90
2023-04-01T07:02:44.155Z,1.50
2023-04-01T07:05:45.883Z,1.38
2023-04-01T07:08:49.770Z,1.48
2023-04-01T07:11:52.866Z,1.15
2023-04-01T07:15:39.427Z,1.50
2023-04-01T07:18:49.305Z,1.20
2023-04-01T07:21:56.162Z,1.60
2023-04-01T07:25:16.621Z,1.40
2023-04-01T07:28:23.113Z,1.67
2023-04-01T07:31:55.581Z,1.33
2023-04-01T07:35:22.259Z,2.28
2023-04-01T07:38:41.620Z,1.42
2023-04-01T07:41:47.854Z,1.35
2023-04-01T07:45:16.812Z,1.63
2023-04-01T07:48:34.044Z,1.20
2023-04-01T07:51:46.471Z,1.40
2023-04-01T07:55:11.034Z,1.58
2023-04-01T07:58:27.939Z,1.27
2023-04-01T08:01:34.736Z,1.50
2023-04-01T08:04:36.404Z,1.45
2023-04-01T08:07:51.331Z,1.60
2023-04-01T08:11:26.289Z,1.27
2023-04-01T08:14:52.165Z,1.30
2023-04-01T08:18:29.240Z,1.98
2023-04-01T08:21:40.086Z,1.90
2023-04-01T08:24:47.576Z,1.60
2023-04-01T08:28:18.768Z,1.90
2023-04-01T08:31:32.372Z,1.52
2023-04-01T08:34:43.250Z,1.58
2023-04-01T08:37:58.524Z,2.63
2023-04-01T08:41:02.421Z,2.22
2023-04-01T08:45:01.507Z,2.17
2023-04-01T08:48:09.601Z,1.75
2023-04-01T08:51:31.221Z,1.90
2023-04-01T08:54:58.565Z,2.22
2023-04-01T08:58:55.923Z,3.15
2023-04-01T09:02:31.734Z,2.42
2023-04-01T09:06:21.603Z,2.20
2023-04-01T09:13:00.030Z,1.75
2023-04-01T09:16:36.604Z,1.75
2023-04-01T09:19:53.125Z,3.30
2023-04-01T09:23:22.312Z,2.00
2023-04-01T09:27:15.639Z,1.70
2023-04-01T09:30:31.750Z,2.17
2023-04-01T09:33:45.276Z,2.10
2023-04-01T09:37:18.739Z,2.42
2023-04-01T09:40:38.367Z,2.08
2023-04-01T09:44:10.526Z,2.92
2023-04-01T09:47:47.269Z,3.40
2023-04-01T09:51:08.011Z,2.95
2023-04-01T09:54:15.739Z,2.78
2023-04-01T09:57:52.789Z,2.60
2023-04-01T10:01:56.752Z,2.05
2023-04-01T10:05:27.595Z,2.00
2023-04-01T10:09:07.082Z,3.08
2023-04-01T10:12:25.974Z,3.28
2023-04-01T10:16:05.262Z,3.92
2023-04-01T10:19:40.817Z,4.95
2023-04-01T10:22:54.655Z,2.33
2023-04-01T10:26:10.733Z,2.20
2023-04-01T10:29:33.757Z,2.72
2023-04-01T10:33:08.674Z,2.45
2023-04-01T10:36:38.057Z,2.42
2023-04-01T10:40:08.134Z,3.33
2023-04-01T10:44:15.721Z,2.08
2023-04-01T10:47:38.345Z,2.03
2023-04-01T10:51:17.970Z,2.38
2023-04-01T10:54:43.951Z,2.00
2023-04-01T10:58:30.644Z,1.90
2023-04-01T11:02:35.594Z,1.83
2023-04-01T11:06:14.690Z,2.20
2023-04-01T11:09:28.292Z,2.00
2023-04-01T11:13:10.962Z,1.88
2023-04-01T11:16:26.001Z,2.25
2023-04-01T11:20:01.068Z,2.10
2023-04-01T11:23:13.674Z,2.08
2023-04-01T11:26:43.545Z,2.63
2023-04-01T11:30:25.933Z,2.38
2023-04-01T11:34:11.120Z,2.88
2023-04-01T11:37:38.082Z,2.92
2023-04-01T11:41:26.522Z,3.13
2023-04-01T11:45:16.601Z,2.60
2023-04-01T11:48:40.875Z,2.40
2023-04-01T11:55:21.044Z,2.20
2023-04-01T12:02:10.070Z,2.45
2023-04-01T12:08:47.639Z,2.13
2023-04-01T12:12:04.207Z,2.33
2023-04-01T12:15:30.982Z,1.92
2023-04-01T12:18:51.068Z,1.88
2023-04-01T12:22:13.207Z,1.80
2023-04-01T12:25:25.971Z,2.15
2023-04-01T12:29:06.983Z,1.83
2023-04-01T12:32:29.094Z,1.77
2023-04-01T12:36:09.658Z,2.08
2023-04-01T12:39:40.376Z,3.78
2023-04-01T12:42:58.071Z,3.38
2023-04-01T12:46:15.078Z,2.47
2023-04-01T12:49:35.071Z,3.20
2023-04-01T12:53:04.137Z,3.83
2023-04-01T12:56:14.174Z,2.83
2023-04-01T12:59:24.565Z,3.13
2023-04-01T13:02:41.203Z,2.97
2023-04-01T13:05:57.676Z,2.90
2023-04-01T13:09:20.927Z,1.50
2023-04-01T13:12:22.351Z,2.00
2023-04-01T13:15:41.336Z,2.50
2023-04-01T13:18:56.759Z,2.40
2023-04-01T13:22:02.263Z,3.20
2023-04-01T13:25:22.472Z,2.00
2023-04-01T13:28:33.304Z,2.20
2023-04-01T13:31:53.406Z,1.80
2023-04-01T13:35:06.027Z,3.42
2023-04-01T13:38:42.000Z,1.80
2023-04-01T13:41:47.271Z,2.55
2023-04-01T13:45:03.650Z,3.20
2023-04-01T13:48:17.325Z,2.38
2023-04-01T13:51:53.167Z,1.98
2023-04-01T13:55:07.711Z,2.00
2023-04-01T13:58:30.002Z,1.13
2023-04-01T14:01:48.903Z,1.60
2023-04-01T14:05:42.150Z,3.22
2023-04-01T14:09:16.067Z,1.83
2023-04-01T14:12:31.377Z,2.10
2023-04-01T14:15:51.570Z,1.90
2023-04-01T14:19:26.231Z,1.73
2023-04-01T14:22:47.577Z,1.85
2023-04-01T14:26:11.037Z,2.10
2023-04-01T14:29:18.516Z,2.00
2023-04-01T14:32:47.878Z,2.72
2023-04-01T14:36:20.105Z,2.38
2023-04-01T14:39:44.033Z,2.88
2023-04-01T14:43:08.186Z,3.05
2023-04-01T14:46:44.345Z,2.10
2023-04-01T14:50:17.715Z,1.83
2023-04-01T14:53:30.170Z,2.70
2023-04-01T14:59:54.475Z,2.20
2023-04-01T15:03:04.759Z,2.40
2023-04-01T15:06:40.454Z,3.10
2023-04-01T15:09:50.826Z,2.10
2023-04-01T15:13:25.608Z,1.95
2023-04-01T15:16:36.238Z,2.30
2023-04-01T15:20:03.129Z,2.10
2023-04-01T15:23:28.795Z,2.00
2023-04-01T15:26:55.210Z,2.65
2023-04-01T15:30:18.992Z,2.45
2023-04-01T15:33:44.839Z,4.38
2023-04-01T15:37:01.301Z,4.90
2023-04-01T15:40:25.931Z,4.97
2023-04-01T15:43:45.334Z,4.20
2023-04-01T15:46:51.078Z,8.68
2023-04-01T15:50:14.438Z,6.38
2023-04-01T15:53:35.007Z,5.22
2023-04-01T15:56:57.779Z,3.50
2023-04-01T16:00:22.903Z,2.65
2023-04-01T16:04:12.240Z,3.47
2023-04-01T16:07:39.592Z,2.50
2023-04-01T16:11:00.130Z,2.33
2023-04-01T16:14:15.341Z,1.85
2023-04-01T16:17:34.884Z,2.30
2023-04-01T16:21:02.528Z,1.67
2023-04-01T16:24:11.178Z,2.13
2023-04-01T16:27:19.891Z,1.80
2023-04-01T16:30:46.972Z,1.92
2023-04-01T16:33:59.682Z,2.53
2023-04-01T16:37:04.857Z,1.60
2023-04-01T16:40:21.205Z,1.35
2023-04-01T16:43:27.859Z,1.75
2023-04-01T16:46:41.242Z,1.73
2023-04-01T16:49:53.304Z,1.25
2023-04-01T16:53:03.654Z,1.40
2023-04-01T16:56:21.766Z,1.00
2023-04-01T16:59:48.498Z,1.33
2023-04-01T17:03:05.393Z,1.35
2023-04-01T17:06:21.476Z,1.63
2023-04-01T17:09:35.470Z,1.35
2023-04-01T17:13:01.511Z,1.60
2023-04-01T17:16:31.109Z,1.60
2023-04-01T17:19:50.909Z,1.60
2023-04-01T17:23:05.134Z,1.70
2023-04-01T17:26:28.685Z,2.17
2023-04-01T17:29:36.340Z,2.35
2023-04-01T17:33:00.812Z,1.80
2023-04-01T17:36:17.705Z,1.75
2023-04-01T17:39:40.390Z,1.73
2023-04-01T17:42:51.712Z,1.30
2023-04-01T17:46:21.508Z,2.40
2023-04-01T17:49:40.932Z,3.25
2023-04-01T17:53:14.936Z,3.20
2023-04-01T17:56:30.772Z,3.10
2023-04-01T17:59:40.417Z,3.63
2023-04-01T18:03:06.983Z,3.47
2023-04-01T18:06:19.687Z,3.47
2023-04-01T18:09:38.545Z,3.55
2023-04-01T18:13:09.436Z,6.78
2023-04-01T18:16:50.639Z,5.00
2023-04-01T18:19:55.251Z,4.70
2023-04-01T18:23:21.635Z,2.75
2023-04-01T18:26:29.531Z,3.40
2023-04-01T18:29:42.429Z,3.35
2023-04-01T18:33:01.947Z,2.85
2023-04-01T18:36:40.078Z,2.50
2023-04-01T18:39:47.335Z,2.30
2023-04-01T18:43:09.797Z,3.50
2023-04-01T18:46:30.436Z,6.43
2023-04-01T18:49:56.461Z,7.53
2023-04-01T18:53:10.976Z,9.45
2023-04-01T18:56:16.313Z,10.27
2023-04-01T18:59:40.457Z,8.70
2023-04-01T19:02:48.918Z,7.90
2023-04-01T19:05:54.600Z,5.65
2023-04-01T19:08:56.573Z,6.18
2023-04-01T19:12:11.103Z,9.00
2023-04-01T19:15:12.648Z,11.25
2023-04-01T19:18:32.136Z,12.50
2023-04-01T19:21:44.496Z,15.38
2023-04-01T19:25:10.401Z,9.18
2023-04-01T19:28:21.593Z,9.10
2023-04-01T19:31:38.325Z,4.50
2023-04-01T19:35:11.695Z,3.25
2023-04-01T19:38:25.309Z,3.63
2023-04-01T19:41:38.270Z,2.55
2023-04-01T19:44:49.717Z,2.40
2023-04-01T19:48:09.433Z,1.73
2023-04-01T19:51:22.980Z,1.63
2023-04-01T19:54:44.269Z,1.73
2023-04-01T19:58:13.153Z,2.63
2023-04-01T20:01:44.092Z,2.08
2023-04-01T20:04:51.794Z,3.47
2023-04-01T20:08:00.437Z,2.25
2023-04-01T20:11:31.292Z,2.33
2023-04-01T20:14:51.167Z,1.80
2023-04-01T20:17:57.491Z,2.63
2023-04-01T20:21:06.307Z,2.13
2023-04-01T20:24:24.650Z,2.30
2023-04-01T20:27:37.296Z,2.40
2023-04-01T20:31:11.660Z,2.10
2023-04-01T20:34:23.938Z,1.90
2023-04-01T20:37:33.168Z,1.58
2023-04-01T20:40:42.371Z,1.70
2023-04-01T20:44:15.546Z,1.42
2023-04-01T20:47:19.851Z,1.27
2023-04-01T20:50:49.145Z,1.40
2023-04-01T20:54:11.973Z,1.40
2023-04-01T20:57:44.496Z,1.75
2023-04-01T21:00:54.138Z,1.55
2023-04-01T21:04:11.737Z,1.75
2023-04-01T21:07:28.329Z,1.42
2023-04-01T21:10:49.931Z,1.60
2023-04-01T21:14:08.299Z,1.63
2023-04-01T21:17:15.711Z,1.85
2023-04-01T21:20:17.281Z,1.60
2023-04-01T21:23:36.381Z,1.75
2023-04-01T21:27:23.278Z,1.88
2023-04-01T21:30:46.183Z,1.95
2023-04-01T21:34:21.721Z,1.58
2023-04-01T21:37:50.290Z,1.45
2023-04-01T21:41:14.961Z,1.50
2023-04-01T21:44:31.804Z,1.10
2023-04-01T21:47:45.243Z,1.20
2023-04-01T21:51:06.774Z,1.10
2023-04-01T21:54:19.056Z,0.90
2023-04-01T21:57:58.482Z,1.98
2023-04-01T22:01:12.267Z,1.20
2023-04-01T22:04:41.610Z,2.35
2023-04-01T22:08:01.776Z,1.30
2023-04-01T22:11:13.335Z,1.40
2023-04-01T22:14:32.467Z,1.30
2023-04-01T22:17:44.232Z,1.15
2023-04-01T22:21:06.071Z,0.98
2023-04-01T22:24:30.570Z,1.00
2023-04-01T22:27:44.840Z,0.90
2023-04-01T22:30:51.818Z,0.88
2023-04-01T22:34:15.318Z,1.10
2023-04-01T22:37:38.309Z,0.73
2023-04-01T22:40:59.499Z,0.85
2023-04-01T22:44:01.385Z,0.90
2023-04-01T22:47:19.872Z,1.10
2023-04-01T22:50:32.826Z,0.80
2023-04-01T22:54:08.262Z,0.88
2023-04-01T22:57:12.967Z,1.00
2023-04-01T23:00:25.142Z,1.45
2023-04-01T23:03:31.496Z,1.05
2023-04-01T23:06:43.833Z,1.00
2023-04-01T23:09:45.442Z,1.20
2023-04-01T23:12:48.382Z,0.80
2023-04-01T23:15:54.272Z,0.80
2023-04-01T23:19:02.667Z,0.82
2023-04-01T23:22:41.905Z,0.90
2023-04-01T23:26:02.252Z,0.88
2023-04-01T23:29:05.178Z,1.33
2023-04-01T23:32:16.879Z,0.90
2023-04-01T23:35:18.406Z,0.87
2023-04-01T23:38:27.233Z,0.70
2023-04-01T23:41:33.535Z,0.90
2023-04-01T23:44:36.963Z,0.90
2023-04-01T23:47:42.011Z,0.80
2023-04-01T23:50:45.264Z,0.93
2023-04-01T23:53:48.435Z,0.90
2023-04-01T23:56:53.333Z,0.80
